Time;durP1;ratioP1;P1;durP2;ratioP2;P2;SDS_P1;SDS_P2;PMS_P1;PMS_P2;Temp;Humidity;BMP_temperature;BMP_pressure;BME280_temperature;BME280_humidity;BME280_pressure;Samples;Min_cycle;Max_cycle;Signal;HPM_P1;HPM_P2
2022/04/22 00:01:29;;;;;;;6.05;5.00;;;;;;;11.16;nan;100908.50;5072000;28;20059;-51
2022/04/22 00:03:55;;;;;;;5.38;4.88;;;;;;;11.39;nan;100961.28;5072023;28;20071;-48
2022/04/22 00:06:20;;;;;;;10.43;5.50;;;;;;;11.00;nan;100897.63;5087880;28;20066;-49
2022/04/22 00:08:46;;;;;;;6.25;5.22;;;;;;;11.32;nan;100960.63;5072228;28;20072;-54
2022/04/22 00:11:29;;;;;;;6.65;5.15;;;;;;;11.23;nan;100949.53;5072032;28;20029;-50
2022/04/22 00:13:56;;;;;;;5.88;5.00;;;;;;;11.16;nan;100956.78;5072303;28;20028;-51
2022/04/22 00:16:21;;;;;;;6.60;5.43;;;;;;;10.78;nan;100906.25;5072183;28;20033;-48
2022/04/22 00:18:47;;;;;;;7.03;5.20;;;;;;;11.11;nan;100958.72;5071541;28;20466;-49
2022/04/22 00:21:12;;;;;;;9.20;4.85;;;;;;;10.71;nan;100887.19;5087559;28;20056;-49
2022/04/22 00:23:38;;;;;;;7.53;5.25;;;;;;;11.09;nan;100962.31;5071954;28;20037;-48
2022/04/22 00:26:04;;;;;;;5.43;4.68;;;;;;;10.70;nan;100912.66;5071953;28;20029;-52
2022/04/22 00:28:29;;;;;;;4.85;4.32;;;;;;;10.97;nan;100963.56;5072105;28;20033;-50
2022/04/22 00:30:54;;;;;;;7.13;5.45;;;;;;;10.55;nan;100892.06;5071872;28;20036;-54
2022/04/22 00:33:20;;;;;;;7.10;5.15;;;;;;;10.93;nan;100958.44;5087339;28;20025;-51
2022/04/22 00:35:45;;;;;;;6.78;4.75;;;;;;;10.46;nan;100887.06;5071694;28;20029;-50
2022/04/22 00:38:11;;;;;;;6.70;5.00;;;;;;;10.48;nan;100882.63;5071948;28;20036;-53
2022/04/22 00:40:37;;;;;;;6.15;5.05;;;;;;;10.48;nan;100895.78;5087207;28;20044;-48
2022/04/22 00:43:15;;;;;;;6.93;5.00;;;;;;;10.82;nan;100963.19;5071785;28;20388;-52
2022/04/22 00:45:41;;;;;;;5.97;4.63;;;;;;;10.78;nan;100956.28;5071871;28;20040;-50
2022/04/22 00:48:07;;;;;;;5.38;4.85;;;;;;;10.19;nan;100856.34;5087254;28;20032;-49
2022/04/22 00:50:32;;;;;;;6.53;4.78;;;;;;;10.71;nan;100955.63;5071825;28;20514;-52
2022/04/22 00:52:57;;;;;;;9.27;5.35;;;;;;;10.67;nan;100951.34;5074709;28;20033;-48
2022/04/22 00:55:23;;;;;;;5.57;4.53;;;;;;;10.63;nan;100940.06;5075949;28;20051;-48
2022/04/22 00:57:49;;;;;;;7.05;5.15;;;;;;;10.61;nan;100943.66;5075611;28;20033;-54
2022/04/22 01:00:15;;;;;;;8.77;4.55;;;;;;;10.53;nan;100930.75;5091044;28;20036;-53
2022/04/22 01:02:40;;;;;;;6.60;5.65;;;;;;;10.56;nan;100938.53;5075132;28;20028;-47
2022/04/22 01:10:33;;;;;;;6.10;5.15;;;;;;;10.21;nan;100880.84;5075511;28;20048;-54
2022/04/22 01:12:58;;;;;;;6.18;5.22;;;;;;;10.41;nan;100917.09;5091208;28;20036;-55
2022/04/22 01:15:24;;;;;;;7.20;5.70;;;;;;;10.41;nan;100925.84;5074079;28;20028;-49
2022/04/22 01:17:49;;;;;;;7.90;4.95;;;;;;;10.40;nan;100926.75;5090746;28;20407;-49
2022/04/22 01:20:16;;;;;;;8.82;5.78;;;;;;;10.31;nan;100916.47;5074751;28;20057;-51
2022/04/22 01:22:41;;;;;;;6.15;5.28;;;;;;;10.33;nan;100922.59;5075324;28;20257;-48
2022/04/22 01:25:07;;;;;;;13.15;6.13;;;;;;;10.23;nan;100913.22;5075344;28;20067;-53
2022/04/22 01:27:32;;;;;;;6.97;5.43;;;;;;;9.92;nan;100868.53;5075411;28;20082;-49
2022/04/22 01:30:01;;;;;;;8.60;6.20;;;;;;;10.21;nan;100916.81;5090728;28;20024;-51
2022/04/22 01:32:27;;;;;;;9.70;6.15;;;;;;;10.19;nan;100929.16;5075087;28;20028;-49
2022/04/22 01:34:52;;;;;;;8.50;5.70;;;;;;;9.84;nan;100862.63;5090544;28;20024;-48
2022/04/22 01:37:18;;;;;;;10.90;6.22;;;;;;;10.08;nan;100913.66;5075077;28;20516;-49
2022/04/22 01:39:43;;;;;;;7.82;6.22;;;;;;;10.03;nan;100912.91;5074934;28;20044;-49
2022/04/22 01:42:09;;;;;;;7.03;6.28;;;;;;;10.03;nan;100921.69;5090582;28;20037;-48
2022/04/22 01:44:35;;;;;;;7.97;6.38;;;;;;;9.93;nan;100907.06;5074631;28;20039;-50
2022/04/22 01:47:02;;;;;;;7.90;6.70;;;;;;;9.92;nan;100920.25;5074966;28;20108;-47
2022/04/22 01:49:27;;;;;;;8.25;6.22;;;;;;;9.90;nan;100916.78;5074457;28;20086;-48
2022/04/22 01:51:54;;;;;;;7.60;5.95;;;;;;;9.80;nan;100904.81;5074470;28;20145;-50
2022/04/22 01:54:19;;;;;;;8.10;6.35;;;;;;;9.83;nan;100913.50;5074488;28;20036;-51
2022/04/22 01:56:45;;;;;;;8.00;6.07;;;;;;;9.77;nan;100905.78;5074435;28;20028;-47
2022/04/22 01:59:10;;;;;;;7.38;6.32;;;;;;;9.37;nan;100850.81;5074324;28;20395;-46
2022/04/22 02:01:35;;;;;;;8.93;6.30;;;;;;;9.72;nan;100919.97;5074518;28;20158;-50
2022/04/22 02:04:00;;;;;;;7.85;6.57;;;;;;;9.70;nan;100904.22;5073503;28;20473;-51
2022/04/22 02:06:26;;;;;;;8.60;6.35;;;;;;;9.69;nan;100910.38;5074615;28;20037;-53
2022/04/22 02:08:52;;;;;;;8.60;6.40;;;;;;;9.66;nan;100899.09;5073257;28;20033;-51
2022/04/22 02:11:17;;;;;;;7.80;6.20;;;;;;;9.56;nan;100880.94;5074099;28;20033;-48
2022/04/22 02:13:42;;;;;;;8.23;5.88;;;;;;;9.58;nan;100888.78;5072971;28;20037;-48
2022/04/22 02:16:08;;;;;;;11.70;6.22;;;;;;;9.17;nan;100826.84;5073089;28;20032;-52
2022/04/22 02:18:36;;;;;;;7.80;6.35;;;;;;;9.49;nan;100878.50;5073965;28;20044;-48
2022/04/22 02:21:03;;;;;;;9.65;6.18;;;;;;;9.08;nan;100807.88;5089239;28;20029;-49
2022/04/22 02:23:29;;;;;;;7.93;6.50;;;;;;;9.38;nan;100870.94;5074338;28;20086;-49
2022/04/22 02:25:54;;;;;;;7.80;6.13;;;;;;;9.36;nan;100864.88;5073949;28;20032;-54
2022/04/22 02:28:31;;;;;;;11.80;6.43;;;;;;;9.30;nan;100849.28;5073964;28;20028;-49
2022/04/22 02:30:57;;;;;;;8.60;7.07;;;;;;;9.37;nan;100866.56;5073926;28;20089;-53
2022/04/22 02:33:23;;;;;;;9.13;6.82;;;;;;;9.35;nan;100871.00;5074184;28;20032;-51
2022/04/22 02:35:48;;;;;;;8.02;6.38;;;;;;;9.35;nan;100865.75;5074077;28;20499;-49
2022/04/22 02:38:13;;;;;;;8.43;6.47;;;;;;;9.32;nan;100868.47;5073913;28;20041;-52
2022/04/22 02:46:06;;;;;;;8.05;6.43;;;;;;;9.08;nan;100834.13;5073524;28;20038;-58
2022/04/22 02:48:32;;;;;;;9.98;6.53;;;;;;;9.18;nan;100865.34;5073492;28;20191;-53
2022/04/22 02:50:57;;;;;;;8.73;7.03;;;;;;;8.82;nan;100806.78;5073295;28;20437;-49
2022/04/22 02:53:23;;;;;;;9.35;7.22;;;;;;;9.09;nan;100868.22;5073496;28;20033;-51
2022/04/22 02:55:50;;;;;;;8.55;6.82;;;;;;;9.00;nan;100850.06;5073339;28;20044;-50
2022/04/22 02:58:16;;;;;;;7.57;6.80;;;;;;;8.70;nan;100801.00;5073265;28;20025;-50
2022/04/22 03:00:42;;;;;;;8.32;6.65;;;;;;;8.89;nan;100841.59;5088875;28;20406;-48
2022/04/22 03:03:07;;;;;;;11.23;6.60;;;;;;;8.55;nan;100770.75;5088598;28;20475;-49
2022/04/22 03:05:34;;;;;;;9.43;7.10;;;;;;;8.57;nan;100783.81;5088793;28;20037;-52
2022/04/22 03:08:00;;;;;;;9.88;7.50;;;;;;;8.91;nan;100852.94;5088870;28;20028;-53
2022/04/22 03:10:26;;;;;;;8.38;7.07;;;;;;;8.53;nan;100790.03;5073123;28;20032;-53
2022/04/22 03:12:51;;;;;;;8.35;6.60;;;;;;;8.82;nan;100846.16;5073011;28;20094;-53
2022/04/22 03:15:17;;;;;;;9.65;6.78;;;;;;;8.38;nan;100768.53;5073194;28;20071;-48
2022/04/22 03:17:42;;;;;;;12.43;7.00;;;;;;;8.81;nan;100844.44;5073046;28;20032;-50
2022/04/22 03:20:08;;;;;;;8.57;6.63;;;;;;;8.45;nan;100782.38;5072485;28;20056;-54
2022/04/22 03:22:33;;;;;;;7.97;7.13;;;;;;;8.78;nan;100836.66;5072723;28;20471;-54
2022/04/22 03:25:00;;;;;;;7.78;6.40;;;;;;;8.81;nan;100841.81;5088513;28;20036;-52
2022/04/22 03:27:25;;;;;;;7.53;6.38;;;;;;;8.47;nan;100777.94;5072761;28;20433;-52
2022/04/22 03:29:51;;;;;;;9.07;6.93;;;;;;;8.77;nan;100828.78;5072559;28;20105;-55
2022/04/22 03:32:16;;;;;;;11.88;7.07;;;;;;;8.79;nan;100827.84;5072804;28;20075;-51
2022/04/22 03:34:41;;;;;;;7.53;6.10;;;;;;;8.71;nan;100808.81;5072656;28;20387;-48
2022/04/22 03:37:07;;;;;;;7.68;6.90;;;;;;;8.84;nan;100820.72;5072789;28;20040;-51
2022/04/22 03:39:32;;;;;;;11.35;5.82;;;;;;;8.79;nan;100811.22;5072540;28;20123;-51
2022/04/22 03:41:58;;;;;;;7.72;5.90;;;;;;;8.56;nan;100764.59;5072335;28;20036;-54
2022/04/22 03:44:24;;;;;;;8.70;6.93;;;;;;;8.90;nan;100817.09;5072517;28;20033;-48
2022/04/22 03:46:49;;;;;;;9.55;6.68;;;;;;;8.92;nan;100824.03;5072286;28;20028;-55
2022/04/22 03:49:14;;;;;;;8.70;6.50;;;;;;;8.55;nan;100744.53;5071080;28;20127;-52
2022/04/22 03:51:40;;;;;;;8.65;6.68;;;;;;;8.94;nan;100816.09;5072308;28;20044;-50
2022/04/22 03:54:05;;;;;;;7.70;6.55;;;;;;;8.61;nan;100765.31;5072328;28;20033;-49
2022/04/22 03:59:15;;;;;;;7.93;5.95;;;;;;;8.91;nan;100813.53;5072204;28;20043;-47
2022/04/22 04:01:40;;;;;;;9.30;6.75;;;;;;;8.90;nan;100825.81;5072268;28;20041;-49
2022/04/22 04:04:05;;;;;;;11.98;7.20;;;;;;;8.87;nan;100807.50;5072000;28;20032;-49
2022/04/22 04:06:31;;;;;;;9.57;7.05;;;;;;;8.53;nan;100748.94;5072195;28;20390;-53
2022/04/22 04:17:09;;;;;;;8.45;7.35;;;;;;;8.74;nan;100800.88;5072375;28;20055;-49
2022/04/22 04:25:03;;;;;;;10.85;8.27;;;;;;;8.69;nan;100789.63;5072184;28;20051;-47
2022/04/22 04:27:29;;;;;;;14.50;8.68;;;;;;;8.45;nan;100751.75;5087089;28;20111;-48
2022/04/22 04:29:55;;;;;;;10.10;9.05;;;;;;;8.84;nan;100806.75;5087279;28;20451;-48
2022/04/22 04:32:20;;;;;;;10.57;8.75;;;;;;;8.54;nan;100761.16;5087716;28;20036;-54
2022/04/22 04:34:45;;;;;;;9.48;8.57;;;;;;;8.54;nan;100774.28;5087445;28;20043;-48
2022/04/22 04:37:12;;;;;;;9.45;8.30;;;;;;;8.81;nan;100806.81;5071907;28;20040;-48
2022/04/22 04:39:38;;;;;;;9.18;7.68;;;;;;;8.50;nan;100764.75;5071827;28;20051;-51
2022/04/22 04:42:04;;;;;;;11.63;8.68;;;;;;;8.45;nan;100764.00;5071867;28;20368;-46
2022/04/22 04:44:29;;;;;;;13.10;8.68;;;;;;;8.45;nan;100759.63;5071673;28;20039;-47
2022/04/22 04:46:55;;;;;;;11.00;9.50;;;;;;;8.81;nan;100823.44;5071721;28;20486;-47
2022/04/22 04:49:20;;;;;;;12.15;9.55;;;;;;;8.78;nan;100825.28;5071688;28;20036;-50
2022/04/22 04:51:46;;;;;;;12.32;9.02;;;;;;;8.39;nan;100769.41;5071735;28;20040;-46
2022/04/22 04:54:11;;;;;;;14.30;9.27;;;;;;;8.76;nan;100830.53;5071630;28;20471;-49
2022/04/22 04:56:37;;;;;;;12.70;8.85;;;;;;;8.80;nan;100833.97;5071737;28;20032;-50
2022/04/22 04:59:02;;;;;;;11.80;9.80;;;;;;;8.53;nan;100780.41;5070016;28;20120;-47
2022/04/22 05:01:27;;;;;;;10.43;9.43;;;;;;;8.88;nan;100829.38;5087297;28;20085;-49
2022/04/22 05:03:53;;;;;;;10.70;9.60;;;;;;;8.83;nan;100811.13;5071120;28;20047;-45
2022/04/22 05:06:19;;;;;;;9.80;8.80;;;;;;;8.95;nan;100825.69;5071531;28;20037;-47
2022/04/22 05:08:44;;;;;;;9.90;8.88;;;;;;;8.27;nan;100720.72;5071534;28;20116;-51
2022/04/22 05:11:10;;;;;;;11.30;9.32;;;;;;;8.77;nan;100799.91;5071604;28;20119;-48
2022/04/22 05:13:35;;;;;;;10.63;9.52;;;;;;;8.92;nan;100824.03;5071386;28;20067;-49
2022/04/22 05:16:00;;;;;;;13.98;9.75;;;;;;;8.93;nan;100833.59;5071663;28;20032;-47
2022/04/22 05:18:26;;;;;;;11.07;9.70;;;;;;;8.93;nan;100822.28;5071119;28;20037;-51
2022/04/22 05:20:51;;;;;;;12.20;10.10;;;;;;;8.57;nan;100760.22;5070884;28;20097;-47
2022/04/22 05:23:16;;;;;;;12.68;9.15;;;;;;;8.94;nan;100814.34;5071396;28;20039;-48
2022/04/22 05:25:42;;;;;;;11.25;10.05;;;;;;;9.00;nan;100823.81;5071287;28;20162;-53
2022/04/22 05:28:07;;;;;;;10.48;9.48;;;;;;;9.01;nan;100813.28;5069931;28;20391;-53
2022/04/22 05:33:30;;;;;;;11.90;9.57;;;;;;;9.11;nan;100823.56;5048145;28;20158;-50
2022/04/22 05:35:57;;;;;;;12.57;9.52;;;;;;;8.89;nan;100778.59;5071254;28;20119;-51
2022/04/22 05:38:24;;;;;;;13.25;9.32;;;;;;;9.13;nan;100813.84;5071560;28;20032;-48
2022/04/22 05:40:49;;;;;;;13.10;10.43;;;;;;;9.23;nan;100836.31;5090487;28;20063;-48
2022/04/22 05:43:14;;;;;;;10.73;9.50;;;;;;;8.99;nan;100778.31;5090697;28;20057;-53
2022/04/22 05:45:40;;;;;;;10.38;9.00;;;;;;;9.41;nan;100835.84;5084947;28;20033;-52
2022/04/22 05:48:07;;;;;;;13.73;9.73;;;;;;;9.41;nan;100820.94;5054289;28;20041;-52
2022/04/22 05:50:33;;;;;;;11.98;10.55;;;;;;;9.55;nan;100837.16;5055005;28;20033;-53
2022/04/22 05:52:59;;;;;;;10.65;9.55;;;;;;;9.68;nan;100844.72;5054812;28;20021;-52
2022/04/22 05:55:30;;;;;;;12.63;10.55;;;;;;;9.76;nan;100840.09;5054414;28;20037;-48
2022/04/22 05:57:57;;;;;;;14.50;10.35;;;;;;;9.83;nan;100842.50;5054957;28;20044;-48
2022/04/22 06:00:25;;;;;;;10.73;9.10;;;;;;;9.96;nan;100848.25;5054598;28;20029;-49
2022/04/22 06:02:52;;;;;;;14.43;10.63;;;;;;;9.61;nan;100776.56;5065990;28;20433;-54
2022/04/22 06:05:20;;;;;;;13.45;10.50;;;;;;;10.05;nan;100843.59;5073017;28;20035;-51
2022/04/22 06:07:45;;;;;;;14.25;10.18;;;;;;;9.90;nan;100806.38;5074031;28;20075;-51
2022/04/22 06:12:56;;;;;;;13.02;11.32;;;;;;;10.33;nan;100850.69;5074194;28;20113;-51
2022/04/22 06:15:21;;;;;;;13.75;10.48;;;;;;;10.15;nan;100787.22;5074295;28;20460;-48
2022/04/22 06:17:47;;;;;;;14.85;10.43;;;;;;;10.21;nan;100788.78;5074302;28;20075;-46
2022/04/22 06:20:13;;;;;;;12.43;10.75;;;;;;;10.72;nan;100852.88;5072204;28;20068;-47
2022/04/22 06:22:38;;;;;;;10.38;9.25;;;;;;;10.41;nan;100781.13;5072916;28;20040;-47
2022/04/22 06:25:05;;;;;;;12.90;11.52;;;;;;;10.49;nan;100792.25;5072957;28;20393;-51
2022/04/22 06:27:34;;;;;;;13.30;10.52;;;;;;;10.80;nan;100838.63;5074206;28;20039;-49
2022/04/22 06:30:05;;;;;;;14.60;11.00;;;;;;;10.92;nan;100854.00;5072489;28;20422;-47
2022/04/22 06:32:31;;;;;;;13.40;10.77;;;;;;;11.02;nan;100843.13;5073725;28;20089;-47
2022/04/22 06:34:57;;;;;;;13.00;10.40;;;;;;;11.07;nan;100832.41;5073886;28;20040;-48
2022/04/22 06:37:22;;;;;;;12.15;10.50;;;;;;;10.79;nan;100768.44;5073734;28;20032;-49
2022/04/22 06:48:00;;;;;;;13.90;11.05;;;;;;;11.52;nan;100835.22;5073386;28;20052;-48
2022/04/22 06:50:26;;;;;;;13.18;11.77;;;;;;;11.63;nan;100831.25;5071230;28;20033;-47
2022/04/22 06:52:51;;;;;;;13.85;11.05;;;;;;;11.71;nan;100845.06;5072377;28;20399;-51
2022/04/22 06:55:17;;;;;;;13.55;11.60;;;;;;;11.84;nan;100841.06;5071372;28;20473;-49
2022/04/22 06:57:49;;;;;;;16.77;11.55;;;;;;;11.92;nan;100855.72;5072302;28;20033;-49
2022/04/22 07:00:15;;;;;;;15.38;12.38;;;;;;;11.68;nan;100778.34;5073458;28;20040;-50
2022/04/22 07:02:41;;;;;;;13.45;11.30;;;;;;;12.24;nan;100843.03;5073189;28;20065;-50
2022/04/22 07:05:07;;;;;;;13.90;11.27;;;;;;;12.49;nan;100826.22;5072761;28;20033;-55
2022/04/22 07:07:32;;;;;;;12.93;10.73;;;;;;;13.05;nan;100853.78;5071972;28;20044;-51
2022/04/22 07:09:58;;;;;;;13.73;11.38;;;;;;;12.78;nan;100780.97;5073454;28;20145;-51
2022/04/22 07:12:27;;;;;;;12.60;10.68;;;;;;;13.22;nan;100789.66;5073143;28;20408;-49
2022/04/22 07:15:03;;;;;;;11.38;10.18;;;;;;;14.04;nan;100826.44;5073032;28;20028;-53
2022/04/22 07:17:33;;;;;;;13.40;11.20;;;;;;;14.56;nan;100864.59;5073251;28;20476;-46
2022/04/22 07:20:09;;;;;;;12.32;10.18;;;;;;;14.87;nan;100830.34;5072379;28;20056;-53
2022/04/22 07:22:36;;;;;;;11.52;10.27;;;;;;;14.90;nan;100809.00;5070944;28;20044;-47
2022/04/22 07:25:01;;;;;;;14.20;11.23;;;;;;;14.78;nan;100800.78;5070901;28;20524;-50
2022/04/22 07:27:28;;;;;;;10.63;9.57;;;;;;;15.36;nan;100867.59;5072117;28;20139;-53
2022/04/22 07:29:58;;;;;;;12.57;10.77;;;;;;;14.81;nan;100785.59;5071483;28;20064;-50
2022/04/22 07:32:24;;;;;;;13.45;10.15;;;;;;;15.00;nan;100817.34;5072775;28;20041;-53
2022/04/22 07:34:50;;;;;;;13.15;10.82;;;;;;;15.18;nan;100867.63;5072827;28;20039;-51
2022/04/22 07:37:15;;;;;;;11.13;9.95;;;;;;;15.26;nan;100863.72;5072695;28;20032;-50
2022/04/22 07:39:41;;;;;;;13.63;10.43;;;;;;;15.15;nan;100792.66;5072667;28;20046;-50
2022/04/22 07:42:17;;;;;;;11.73;10.07;;;;;;;15.28;nan;100811.47;5053637;28;20067;-50
2022/04/22 07:47:30;;;;;;;13.65;10.88;;;;;;;16.24;nan;100869.94;5070663;28;20383;-49
2022/04/22 07:49:55;;;;;;;11.77;9.40;;;;;;;16.53;nan;100870.09;5069470;28;20040;-50
2022/04/22 07:52:20;;;;;;;11.15;10.05;;;;;;;16.58;nan;100870.75;5070118;28;20033;-50
2022/04/22 07:54:46;;;;;;;12.27;9.98;;;;;;;16.02;nan;100823.41;5071177;28;20040;-53
2022/04/22 07:57:11;;;;;;;13.32;9.07;;;;;;;16.00;nan;100867.75;5071478;28;20040;-49
2022/04/22 07:59:37;;;;;;;11.50;9.88;;;;;;;16.47;nan;100873.97;5071282;28;20028;-49
2022/04/22 08:02:03;;;;;;;12.07;9.55;;;;;;;16.64;nan;100814.56;5070280;28;20541;-50
2022/04/22 08:04:28;;;;;;;15.63;9.77;;;;;;;17.40;nan;100862.31;5071323;28;20037;-46
2022/04/22 08:06:54;;;;;;;11.05;9.05;;;;;;;17.60;nan;100870.94;5069614;28;20039;-51
2022/04/22 08:09:19;;;;;;;11.45;9.50;;;;;;;17.35;nan;100827.13;5070426;28;20169;-55
2022/04/22 08:11:44;;;;;;;10.98;9.63;;;;;;;17.28;nan;100835.56;5071484;28;20029;-49
2022/04/22 08:14:13;;;;;;;12.27;9.80;;;;;;;17.62;nan;100867.22;5068731;28;20033;-47
2022/04/22 08:16:41;;;;;;;10.50;8.85;;;;;;;17.63;nan;100871.59;5070073;28;20044;-52
2022/04/22 08:19:06;;;;;;;10.43;8.95;;;;;;;18.01;nan;100871.88;5070300;28;20063;-48
2022/04/22 08:21:35;;;;;;;12.85;10.73;;;;;;;17.79;nan;100876.84;5069746;28;20084;-52
2022/04/22 08:24:01;;;;;;;10.50;9.40;;;;;;;18.15;nan;100876.38;5071216;28;20957;-51
2022/04/22 08:26:26;;;;;;;10.77;9.27;;;;;;;18.29;nan;100869.22;5070851;28;20036;-49
2022/04/22 08:28:51;;;;;;;10.13;8.95;;;;;;;18.95;nan;100880.00;5071160;28;20086;-49
2022/04/22 08:31:17;;;;;;;12.77;9.25;;;;;;;18.83;nan;100870.13;5070243;28;20052;-47
2022/04/22 08:33:45;;;;;;;10.77;9.10;;;;;;;19.12;nan;100878.03;5071334;28;20036;-46
2022/04/22 08:36:11;;;;;;;14.43;9.75;;;;;;;18.85;nan;100873.56;5071137;28;20036;-49
2022/04/22 08:38:37;;;;;;;11.10;8.43;;;;;;;19.26;nan;100865.47;5071059;28;20044;-46
2022/04/22 08:41:03;;;;;;;12.25;9.05;;;;;;;19.10;nan;100846.09;5070619;28;20044;-47
2022/04/22 08:43:30;;;;;;;10.93;9.43;;;;;;;19.00;nan;100842.34;5069821;28;20136;-47
2022/04/22 08:45:55;;;;;;;10.75;9.65;;;;;;;18.88;nan;100820.03;5071391;28;20046;-45
2022/04/22 08:51:05;;;;;;;10.93;8.93;;;;;;;18.87;nan;100841.44;5071255;28;20442;-48
2022/04/22 08:53:31;;;;;;;9.32;8.27;;;;;;;19.28;nan;100839.50;5070114;28;20406;-50
2022/04/22 08:56:01;;;;;;;11.63;9.65;;;;;;;18.80;nan;100817.00;5071360;28;20479;-50
2022/04/22 08:58:27;;;;;;;11.13;8.68;;;;;;;19.71;nan;100834.75;5069253;28;20033;-48
2022/04/22 09:00:54;;;;;;;13.52;8.10;;;;;;;19.20;nan;100791.16;5070680;28;20629;-51
2022/04/22 09:03:20;;;;;;;9.00;8.10;;;;;;;19.69;nan;100831.34;5071199;28;20086;-49
2022/04/22 09:05:45;;;;;;;10.35;8.05;;;;;;;20.06;nan;100817.06;5069354;28;20029;-47
2022/04/22 09:08:11;;;;;;;9.43;8.38;;;;;;;19.96;nan;100794.66;5069049;28;20024;-51
2022/04/22 09:10:38;;;;;;;11.13;8.20;;;;;;;20.06;nan;100827.75;5069796;28;20033;-45
2022/04/22 09:13:09;;;;;;;9.38;8.38;;;;;;;20.40;nan;100826.19;5070552;28;20041;-48
2022/04/22 09:15:36;;;;;;;11.23;8.70;;;;;;;20.07;nan;100780.53;5075173;28;20029;-47
2022/04/22 09:18:12;;;;;;;10.95;7.80;;;;;;;20.65;nan;100820.75;5073455;28;20249;-52
2022/04/22 09:20:38;;;;;;;11.18;8.30;;;;;;;20.24;nan;100774.78;5073147;28;20060;-51
2022/04/22 09:23:21;;;;;;;9.00;7.57;;;;;;;20.89;nan;100785.09;5072848;28;20048;-54
2022/04/22 09:25:46;;;;;;;8.23;7.25;;;;;;;20.35;nan;100811.47;5072905;28;20574;-52
2022/04/22 09:28:12;;;;;;;12.00;8.38;;;;;;;19.98;nan;100810.56;5072910;28;20163;-49
2022/04/22 09:30:40;;;;;;;8.45;7.25;;;;;;;20.64;nan;100808.34;5074269;28;20032;-49
2022/04/22 09:33:08;;;;;;;10.18;7.75;;;;;;;20.12;nan;100773.88;5074526;28;20054;-51
2022/04/22 09:42:38;;;;;;;7.75;6.85;;;;;;;20.65;nan;100801.19;5073601;28;20385;-49
2022/04/22 09:43:50;;;;;;;8.68;7.50;;;;;;;21.84;nan;100791.84;5073513;28;20094;-52
2022/04/22 09:46:24;;;;;;;9.80;7.30;;;;;;;20.59;nan;100732.09;5072498;28;20040;-49
2022/04/22 09:48:50;;;;;;;8.80;7.53;;;;;;;20.84;nan;100742.63;5073094;28;20399;-50
2022/04/22 09:51:27;;;;;;;7.88;6.55;;;;;;;20.73;nan;100772.88;5073937;28;20044;-53
2022/04/22 09:54:06;;;;;;;8.82;7.03;;;;;;;21.23;nan;100782.44;5073666;28;20513;-50
2022/04/22 09:56:33;;;;;;;10.15;7.07;;;;;;;21.81;nan;100781.38;5073764;28;20043;-50
2022/04/22 09:58:59;;;;;;;8.65;7.25;;;;;;;21.49;nan;100732.19;5073814;28;20033;-51
2022/04/22 10:01:25;;;;;;;8.20;6.45;;;;;;;21.75;nan;100749.72;5073421;28;20081;-51
2022/04/22 10:03:51;;;;;;;7.05;6.35;;;;;;;21.74;nan;100779.31;5072708;28;20044;-46
2022/04/22 10:06:17;;;;;;;10.65;6.93;;;;;;;21.52;nan;100731.09;5073302;28;20047;-49
2022/04/22 10:08:45;;;;;;;9.98;6.25;;;;;;;22.18;nan;100784.66;5069940;28;20028;-54
2022/04/22 10:11:14;;;;;;;9.77;6.70;;;;;;;22.39;nan;100766.81;5071474;28;20033;-49
2022/04/22 10:13:41;;;;;;;8.52;6.35;;;;;;;21.65;nan;100777.38;5073139;28;20039;-51
2022/04/22 10:16:10;;;;;;;7.97;6.63;;;;;;;21.72;nan;100770.53;5071998;28;20033;-48
2022/04/22 10:18:37;;;;;;;7.72;6.68;;;;;;;22.16;nan;100791.97;5071345;28;20028;-52
2022/04/22 10:21:03;;;;;;;7.75;6.53;;;;;;;21.56;nan;100727.22;5072091;28;20495;-50
2022/04/22 10:23:30;;;;;;;7.75;7.03;;;;;;;22.16;nan;100772.34;5073925;28;20032;-51
2022/04/22 10:25:56;;;;;;;9.23;6.28;;;;;;;21.85;nan;100760.56;5070912;28;20074;-50
2022/04/22 10:28:23;;;;;;;7.35;6.65;;;;;;;21.72;nan;100759.81;5073580;28;20040;-50
2022/04/22 10:30:51;;;;;;;8.25;6.68;;;;;;;21.68;nan;100704.81;5072085;28;20024;-48
2022/04/22 10:33:16;;;;;;;7.18;6.57;;;;;;;22.20;nan;100747.88;5071668;28;20036;-54
2022/04/22 10:35:44;;;;;;;7.28;5.88;;;;;;;22.07;nan;100762.38;5072272;28;20040;-56
2022/04/22 10:38:30;;;;;;;8.05;5.28;;;;;;;23.28;nan;100757.50;5071608;28;20117;-49
2022/04/22 10:40:55;;;;;;;9.48;6.50;;;;;;;22.49;nan;100769.59;5072549;28;20044;-47
2022/04/22 10:43:24;;;;;;;6.95;5.68;;;;;;;22.40;nan;100752.44;5072070;28;20025;-48
2022/04/22 10:48:33;;;;;;;9.88;5.38;;;;;;;22.50;nan;100752.53;5071823;28;20060;-52
2022/04/22 10:51:02;;;;;;;8.45;6.32;;;;;;;21.89;nan;100702.25;5072980;28;20036;-54
2022/04/22 10:53:33;;;;;;;7.30;5.97;;;;;;;21.89;nan;100756.66;5072166;28;20033;-54
2022/04/22 10:56:26;;;;;;;6.15;5.57;;;;;;;21.75;nan;100759.56;5072838;28;20032;-52
2022/04/22 10:59:21;;;;;;;7.10;6.38;;;;;;;22.07;nan;100738.25;5072457;28;20472;-48
2022/04/22 11:01:47;;;;;;;6.97;5.45;;;;;;;22.61;nan;100740.88;5067114;28;20079;-53
2022/04/22 11:04:20;;;;;;;10.18;5.43;;;;;;;22.99;nan;100733.16;5071339;28;20032;-52
2022/04/22 11:06:46;;;;;;;6.03;5.43;;;;;;;23.52;nan;100729.38;5072843;28;20033;-49
2022/04/22 11:09:23;;;;;;;8.27;5.57;;;;;;;23.45;nan;100677.19;5072306;28;20032;-50
2022/04/22 11:11:49;;;;;;;9.98;6.57;;;;;;;23.02;nan;100678.34;5071052;28;20028;-51
2022/04/22 11:14:19;;;;;;;8.10;5.35;;;;;;;23.80;nan;100730.47;5071705;28;20044;-54
2022/04/22 11:16:45;;;;;;;7.00;6.30;;;;;;;23.26;nan;100684.28;5071952;28;20396;-52
2022/04/22 11:19:19;;;;;;;9.90;6.38;;;;;;;22.43;nan;100738.75;5069846;28;20047;-54
2022/04/22 11:21:50;;;;;;;6.22;5.63;;;;;;;23.57;nan;100722.75;5072263;28;20507;-51
2022/04/22 11:24:22;;;;;;;10.63;6.88;;;;;;;22.76;nan;100734.28;5071752;28;20036;-56
2022/04/22 11:26:48;;;;;;;9.38;6.13;;;;;;;21.84;nan;100702.56;5072186;28;20036;-57
2022/04/22 11:29:15;;;;;;;6.15;5.53;;;;;;;22.18;nan;100682.78;5071858;28;20047;-54
2022/04/22 11:31:56;;;;;;;7.57;6.00;;;;;;;22.76;nan;100668.03;5071161;28;20062;-52
2022/04/22 11:34:50;;;;;;;8.32;6.18;;;;;;;22.92;nan;100700.63;5070502;28;20028;-55
2022/04/22 11:37:21;;;;;;;6.70;5.47;;;;;;;21.95;nan;100705.25;5069389;28;20043;-53
2022/04/22 11:39:49;;;;;;;;;;;;;;;21.61;nan;100717.81;5069419;28;20039;-50
2022/04/22 11:42:17;;;;;;;7.25;5.95;;;;;;;21.51;nan;100714.16;5069269;28;19924;-50
2022/04/22 11:45:03;;;;;;;6.85;5.78;;;;;;;21.40;nan;100708.81;5070638;28;20506;-55
2022/04/22 11:47:29;;;;;;;5.43;4.93;;;;;;;21.22;nan;100700.41;5070999;28;20574;-48
2022/04/22 11:49:56;;;;;;;10.15;5.63;;;;;;;21.38;nan;100713.44;5072167;28;20140;-48
2022/04/22 11:52:21;;;;;;;6.50;5.03;;;;;;;21.72;nan;100661.56;5071833;28;20039;-48
2022/04/22 11:54:47;;;;;;;6.70;5.53;;;;;;;21.80;nan;100562.63;5071807;28;20127;-53
2022/04/22 11:57:12;;;;;;;5.57;5.05;;;;;;;23.23;nan;100681.88;5071730;28;20037;-54
2022/04/22 11:59:38;;;;;;;6.45;5.65;;;;;;;22.27;nan;100678.50;5069742;28;20037;-49
2022/04/22 12:10:17;;;;;;;5.15;4.63;;;;;;;18.62;nan;100644.09;5071326;28;20486;-48
2022/04/22 12:12:48;;;;;;;8.63;5.13;;;;;;;18.70;nan;100706.59;5070467;28;20111;-49
2022/04/22 12:15:16;;;;;;;6.95;4.50;;;;;;;19.86;nan;100673.41;5071669;28;20093;-50
2022/04/22 12:17:41;;;;;;;7.63;4.65;;;;;;;20.75;nan;100636.38;5070546;28;20043;-48
2022/04/22 12:20:08;;;;;;;5.13;4.63;;;;;;;21.59;nan;100700.19;5071136;28;20040;-46
2022/04/22 12:22:34;;;;;;;5.07;4.40;;;;;;;21.59;nan;100665.34;5070535;28;20071;-50
2022/04/22 12:25:06;;;;;;;5.47;4.45;;;;;;;21.24;nan;100692.28;5070803;28;20039;-48
2022/04/22 12:27:31;;;;;;;5.95;4.30;;;;;;;20.02;nan;100633.06;5069534;28;20036;-52
2022/04/22 12:30:01;;;;;;;5.75;4.18;;;;;;;19.42;nan;100625.03;5071282;28;20037;-48
2022/04/22 12:32:27;;;;;;;7.85;3.97;;;;;;;19.06;nan;100628.47;5071672;28;20032;-51
2022/04/22 12:35:12;;;;;;;5.13;4.50;;;;;;;18.39;nan;100616.28;5071038;28;20349;-54
2022/04/22 12:37:43;;;;;;;4.72;4.13;;;;;;;19.76;nan;100685.72;5069917;28;20468;-48
2022/04/22 12:40:09;;;;;;;5.32;3.28;;;;;;;20.68;nan;100675.25;5071156;28;20127;-51
2022/04/22 12:42:36;;;;;;;4.68;3.58;;;;;;;20.49;nan;100673.09;5069593;28;20040;-55